KTPA/TPA METAR and TAF weather

Enter ICAO airport designator
Station Type Date Time Source
KTPA METAR 2019/06/27 03:53 UTC NOAA

KTPA 270353Z 11008KT 10SM VCTS FEW037 BKN049 OVC100 31/22 A3012 RMK AO2 LTG DSNT ALQDS RAB0256E24 TSB00E21 SLP198 T03110217 PNO $


Station Type Date Time Source
KTPA Decoded METAR 2019/06/27 03:53 UTC NOAA

TAMPA INTERNATIONAL AIRPORT , FL, United States (KTPA) 27-58N 082-32W 11M
Jun 26, 2019 - 11:53 PM EDT / 2019.06.27 0353 UTC
Wind: from the ESE (110 degrees) at 9 MPH (8 KT):0
Visibility: 10 mile(s):0
Sky conditions: overcast
Weather: thunder in the vicinity; Lightning observed
Temperature: 88.0 F (31.1 C)
Heat index: 93.7 F (34.3 C):1
Dew Point: 71.1 F (21.7 C)
Relative Humidity: 57%
Pressure (altimeter): 30.12 in. Hg (1019 hPa)
ob: KTPA 270353Z 11008KT 10SM VCTS FEW037 BKN049 OVC100 31/22 A3012 RMK AO2 LTG DSNT ALQDS RAB0256E24 TSB00E21 SLP198 T03110217 PNO
cycle: 4

Station Type Date Time Source
KTPA TAF 2019/06/27 04:10 UTC NOAA

TAF
AMD KTPA 270408Z 2704/2806 03008KT P6SM VCTS FEW030CB BKN050 BKN250
TEMPO 2704/2705 VRB15G35KT 3SM TSRA BKN030CB OVC050
FM270600 VRB03KT P6SM FEW250
FM271400 05007KT P6SM SCT030 SCT250
FM272000 30009KT P6SM VCTS SCT050CB SCT250

Example: see airport list